HSSS

Khartoum International Airport

Khartoum, Sudan
METAR HSSS 170800Z 03008KT CAVOK 27/12 Q1015 NOSIG
Observed Flight Rules
Dec-17 @ 08:00 UTC (18 minutes ago) Visual Flight Rules
Wind Visibility Clouds
30° at 8 knots 10,000+ meters
  • Clear skies
Temperatures Readings
Current 27°C / 81°F
Dewpoint 12°C / 54°F
Humidity 39%
Altimeter 29.97" Hg
Pressure 1015 hPa
Elevation 380
METAR HSSS 170800Z 03008KT CAVOK 27/12 Q1015 NOSIG
Observed Flight Rules
Dec-17 @ 08:00 UTC
(18 minutes ago)
VFR
Wind Visibility
30° at 8 knots 10,000+ meters
Clouds
  • Clear skies
Temperature Dewpoint
27°C / 81°F 12°C / 54°F
Humidity Altimeter Pressure
39% 29.97" Hg 1015 hPa